sensor_id;sensor_type;location;lat;lon;timestamp;P1;durP1;ratioP1;P2;durP2;ratioP2
77513;SDS011;66626;48.872;9.084;2023-04-19T00:02:26;14.05;;;8.13;;
77513;SDS011;66626;48.872;9.084;2023-04-19T00:04:52;18.13;;;8.52;;
77513;SDS011;66626;48.872;9.084;2023-04-19T00:07:19;16.65;;;7.75;;
77513;SDS011;66626;48.872;9.084;2023-04-19T00:09:44;15.77;;;8.35;;
77513;SDS011;66626;48.872;9.084;2023-04-19T00:12:10;15.27;;;7.82;;
77513;SDS011;66626;48.872;9.084;2023-04-19T00:14:35;16.77;;;8.60;;
77513;SDS011;66626;48.872;9.084;2023-04-19T00:17:00;15.80;;;7.70;;
77513;SDS011;66626;48.872;9.084;2023-04-19T00:19:25;16.70;;;7.72;;
77513;SDS011;66626;48.872;9.084;2023-04-19T00:21:51;17.75;;;8.25;;
77513;SDS011;66626;48.872;9.084;2023-04-19T00:24:16;18.23;;;8.38;;
77513;SDS011;66626;48.872;9.084;2023-04-19T00:26:42;15.55;;;9.02;;
77513;SDS011;66626;48.872;9.084;2023-04-19T00:29:07;15.63;;;8.88;;
77513;SDS011;66626;48.872;9.084;2023-04-19T00:31:33;15.68;;;8.00;;
77513;SDS011;66626;48.872;9.084;2023-04-19T00:33:58;18.73;;;8.48;;
77513;SDS011;66626;48.872;9.084;2023-04-19T00:36:24;20.10;;;8.70;;
77513;SDS011;66626;48.872;9.084;2023-04-19T00:38:50;16.95;;;8.25;;
77513;SDS011;66626;48.872;9.084;2023-04-19T00:41:15;19.02;;;8.38;;
77513;SDS011;66626;48.872;9.084;2023-04-19T00:43:41;18.83;;;8.07;;
77513;SDS011;66626;48.872;9.084;2023-04-19T00:46:06;18.75;;;8.50;;
77513;SDS011;66626;48.872;9.084;2023-04-19T00:48:32;16.92;;;8.15;;
77513;SDS011;66626;48.872;9.084;2023-04-19T00:51:00;17.33;;;8.23;;
77513;SDS011;66626;48.872;9.084;2023-04-19T00:53:25;20.05;;;8.63;;
77513;SDS011;66626;48.872;9.084;2023-04-19T00:55:51;16.35;;;8.80;;
77513;SDS011;66626;48.872;9.084;2023-04-19T00:58:16;15.07;;;8.38;;
77513;SDS011;66626;48.872;9.084;2023-04-19T01:00:42;16.90;;;8.52;;
77513;SDS011;66626;48.872;9.084;2023-04-19T01:03:08;16.05;;;8.07;;
77513;SDS011;66626;48.872;9.084;2023-04-19T01:05:33;16.70;;;8.00;;
77513;SDS011;66626;48.872;9.084;2023-04-19T01:07:59;21.33;;;9.43;;
77513;SDS011;66626;48.872;9.084;2023-04-19T01:10:24;17.35;;;8.40;;
77513;SDS011;66626;48.872;9.084;2023-04-19T01:12:49;19.30;;;8.32;;
77513;SDS011;66626;48.872;9.084;2023-04-19T01:15:15;19.00;;;9.57;;
77513;SDS011;66626;48.872;9.084;2023-04-19T01:17:40;22.98;;;9.82;;
77513;SDS011;66626;48.872;9.084;2023-04-19T01:20:06;18.80;;;8.50;;
77513;SDS011;66626;48.872;9.084;2023-04-19T01:22:32;18.92;;;9.18;;
77513;SDS011;66626;48.872;9.084;2023-04-19T01:24:57;16.92;;;8.57;;
77513;SDS011;66626;48.872;9.084;2023-04-19T01:27:23;17.58;;;8.43;;
77513;SDS011;66626;48.872;9.084;2023-04-19T01:29:48;18.83;;;9.57;;
77513;SDS011;66626;48.872;9.084;2023-04-19T01:32:13;16.17;;;7.80;;
77513;SDS011;66626;48.872;9.084;2023-04-19T01:34:39;15.00;;;8.13;;
77513;SDS011;66626;48.872;9.084;2023-04-19T01:37:04;17.73;;;8.60;;
77513;SDS011;66626;48.872;9.084;2023-04-19T01:39:29;17.27;;;8.73;;
77513;SDS011;66626;48.872;9.084;2023-04-19T01:41:55;19.30;;;9.85;;
77513;SDS011;66626;48.872;9.084;2023-04-19T01:44:20;20.33;;;10.02;;
77513;SDS011;66626;48.872;9.084;2023-04-19T01:46:46;16.50;;;7.82;;
77513;SDS011;66626;48.872;9.084;2023-04-19T01:49:11;22.02;;;8.68;;
77513;SDS011;66626;48.872;9.084;2023-04-19T01:51:37;15.38;;;8.02;;
77513;SDS011;66626;48.872;9.084;2023-04-19T01:54:03;19.88;;;9.70;;
77513;SDS011;66626;48.872;9.084;2023-04-19T01:56:28;16.80;;;9.02;;
77513;SDS011;66626;48.872;9.084;2023-04-19T01:58:54;18.48;;;9.45;;
77513;SDS011;66626;48.872;9.084;2023-04-19T02:01:19;21.35;;;9.60;;
77513;SDS011;66626;48.872;9.084;2023-04-19T02:03:44;18.92;;;9.38;;
77513;SDS011;66626;48.872;9.084;2023-04-19T02:06:10;19.85;;;10.43;;
77513;SDS011;66626;48.872;9.084;2023-04-19T02:08:36;17.13;;;8.73;;
77513;SDS011;66626;48.872;9.084;2023-04-19T02:11:09;19.38;;;9.98;;
77513;SDS011;66626;48.872;9.084;2023-04-19T02:13:35;16.58;;;8.68;;
77513;SDS011;66626;48.872;9.084;2023-04-19T02:16:01;14.25;;;7.90;;
77513;SDS011;66626;48.872;9.084;2023-04-19T02:18:27;21.27;;;10.15;;
77513;SDS011;66626;48.872;9.084;2023-04-19T02:20:55;18.48;;;8.55;;
77513;SDS011;66626;48.872;9.084;2023-04-19T02:23:21;15.90;;;8.50;;
77513;SDS011;66626;48.872;9.084;2023-04-19T02:25:46;17.95;;;9.38;;
77513;SDS011;66626;48.872;9.084;2023-04-19T02:28:12;17.55;;;8.68;;
77513;SDS011;66626;48.872;9.084;2023-04-19T02:30:37;20.75;;;10.15;;
77513;SDS011;66626;48.872;9.084;2023-04-19T02:33:02;20.35;;;9.43;;
77513;SDS011;66626;48.872;9.084;2023-04-19T02:35:27;18.10;;;8.80;;
77513;SDS011;66626;48.872;9.084;2023-04-19T02:37:53;17.25;;;8.20;;
77513;SDS011;66626;48.872;9.084;2023-04-19T02:40:18;20.05;;;9.77;;
77513;SDS011;66626;48.872;9.084;2023-04-19T02:42:45;16.65;;;9.43;;
77513;SDS011;66626;48.872;9.084;2023-04-19T02:45:10;19.10;;;9.18;;
77513;SDS011;66626;48.872;9.084;2023-04-19T02:47:35;20.20;;;9.45;;
77513;SDS011;66626;48.872;9.084;2023-04-19T02:50:01;16.92;;;9.23;;
77513;SDS011;66626;48.872;9.084;2023-04-19T02:52:26;17.83;;;9.75;;
77513;SDS011;66626;48.872;9.084;2023-04-19T02:54:52;15.52;;;9.02;;
77513;SDS011;66626;48.872;9.084;2023-04-19T02:57:17;16.95;;;9.23;;
77513;SDS011;66626;48.872;9.084;2023-04-19T02:59:42;20.98;;;10.00;;
77513;SDS011;66626;48.872;9.084;2023-04-19T03:02:08;17.42;;;8.68;;
77513;SDS011;66626;48.872;9.084;2023-04-19T03:04:33;22.40;;;10.27;;
77513;SDS011;66626;48.872;9.084;2023-04-19T03:06:59;20.90;;;10.88;;
77513;SDS011;66626;48.872;9.084;2023-04-19T03:09:24;19.98;;;10.00;;
77513;SDS011;66626;48.872;9.084;2023-04-19T03:11:49;18.60;;;9.52;;
77513;SDS011;66626;48.872;9.084;2023-04-19T03:14:15;16.08;;;8.80;;
77513;SDS011;66626;48.872;9.084;2023-04-19T03:16:40;19.05;;;9.48;;
77513;SDS011;66626;48.872;9.084;2023-04-19T03:19:05;18.35;;;9.35;;
77513;SDS011;66626;48.872;9.084;2023-04-19T03:21:31;20.38;;;10.02;;
77513;SDS011;66626;48.872;9.084;2023-04-19T03:23:56;18.35;;;9.40;;
77513;SDS011;66626;48.872;9.084;2023-04-19T03:26:21;18.42;;;9.80;;
77513;SDS011;66626;48.872;9.084;2023-04-19T03:28:47;19.00;;;9.65;;
77513;SDS011;66626;48.872;9.084;2023-04-19T03:31:12;16.83;;;9.02;;
77513;SDS011;66626;48.872;9.084;2023-04-19T03:33:40;18.90;;;9.70;;
77513;SDS011;66626;48.872;9.084;2023-04-19T03:36:06;17.98;;;8.68;;
77513;SDS011;66626;48.872;9.084;2023-04-19T03:38:31;17.45;;;8.18;;
77513;SDS011;66626;48.872;9.084;2023-04-19T03:40:56;21.10;;;9.77;;
77513;SDS011;66626;48.872;9.084;2023-04-19T03:43:22;19.73;;;9.60;;
77513;SDS011;66626;48.872;9.084;2023-04-19T03:45:48;18.75;;;9.23;;
77513;SDS011;66626;48.872;9.084;2023-04-19T03:48:13;18.15;;;8.70;;
77513;SDS011;66626;48.872;9.084;2023-04-19T03:50:39;19.08;;;9.95;;
77513;SDS011;66626;48.872;9.084;2023-04-19T03:53:04;20.10;;;8.80;;
77513;SDS011;66626;48.872;9.084;2023-04-19T03:55:30;19.23;;;9.48;;
77513;SDS011;66626;48.872;9.084;2023-04-19T03:57:55;18.60;;;9.43;;
77513;SDS011;66626;48.872;9.084;2023-04-19T04:00:20;19.50;;;9.98;;
77513;SDS011;66626;48.872;9.084;2023-04-19T04:02:46;19.13;;;9.55;;
77513;SDS011;66626;48.872;9.084;2023-04-19T04:05:11;20.75;;;9.10;;
77513;SDS011;66626;48.872;9.084;2023-04-19T04:07:36;19.27;;;8.65;;
77513;SDS011;66626;48.872;9.084;2023-04-19T04:10:02;19.95;;;9.38;;
77513;SDS011;66626;48.872;9.084;2023-04-19T04:12:27;18.17;;;9.07;;
77513;SDS011;66626;48.872;9.084;2023-04-19T04:14:53;16.63;;;8.77;;
77513;SDS011;66626;48.872;9.084;2023-04-19T04:17:19;17.13;;;8.35;;
77513;SDS011;66626;48.872;9.084;2023-04-19T04:19:44;19.10;;;9.85;;
77513;SDS011;66626;48.872;9.084;2023-04-19T04:22:09;20.70;;;9.82;;
77513;SDS011;66626;48.872;9.084;2023-04-19T04:24:38;20.17;;;10.30;;
77513;SDS011;66626;48.872;9.084;2023-04-19T04:27:05;22.40;;;11.18;;
77513;SDS011;66626;48.872;9.084;2023-04-19T04:29:34;22.33;;;11.43;;
77513;SDS011;66626;48.872;9.084;2023-04-19T04:32:05;23.55;;;10.90;;
77513;SDS011;66626;48.872;9.084;2023-04-19T04:34:34;21.38;;;11.40;;
77513;SDS011;66626;48.872;9.084;2023-04-19T04:37:00;21.50;;;10.90;;
77513;SDS011;66626;48.872;9.084;2023-04-19T04:39:26;18.65;;;9.80;;
77513;SDS011;66626;48.872;9.084;2023-04-19T04:41:51;21.17;;;9.93;;
77513;SDS011;66626;48.872;9.084;2023-04-19T04:44:17;21.02;;;10.50;;
77513;SDS011;66626;48.872;9.084;2023-04-19T04:46:44;22.85;;;10.10;;
77513;SDS011;66626;48.872;9.084;2023-04-19T04:49:09;22.95;;;9.95;;
77513;SDS011;66626;48.872;9.084;2023-04-19T04:51:34;17.88;;;9.55;;
77513;SDS011;66626;48.872;9.084;2023-04-19T04:54:01;18.13;;;8.32;;
77513;SDS011;66626;48.872;9.084;2023-04-19T04:56:26;18.73;;;9.80;;
77513;SDS011;66626;48.872;9.084;2023-04-19T04:58:51;20.65;;;9.50;;
77513;SDS011;66626;48.872;9.084;2023-04-19T05:01:17;20.33;;;10.73;;
77513;SDS011;66626;48.872;9.084;2023-04-19T05:03:43;16.77;;;9.23;;
77513;SDS011;66626;48.872;9.084;2023-04-19T05:06:09;18.95;;;8.52;;
77513;SDS011;66626;48.872;9.084;2023-04-19T05:08:34;17.48;;;8.18;;
77513;SDS011;66626;48.872;9.084;2023-04-19T05:10:59;18.42;;;9.60;;
77513;SDS011;66626;48.872;9.084;2023-04-19T05:13:25;17.50;;;8.90;;
77513;SDS011;66626;48.872;9.084;2023-04-19T05:15:50;20.55;;;9.77;;
77513;SDS011;66626;48.872;9.084;2023-04-19T05:18:15;22.23;;;10.25;;
77513;SDS011;66626;48.872;9.084;2023-04-19T05:20:41;18.45;;;9.18;;
77513;SDS011;66626;48.872;9.084;2023-04-19T05:23:06;23.08;;;11.73;;
77513;SDS011;66626;48.872;9.084;2023-04-19T05:25:32;21.77;;;9.57;;
77513;SDS011;66626;48.872;9.084;2023-04-19T05:27:57;19.35;;;9.48;;
77513;SDS011;66626;48.872;9.084;2023-04-19T05:30:22;18.05;;;9.02;;
77513;SDS011;66626;48.872;9.084;2023-04-19T05:32:48;17.42;;;8.25;;
77513;SDS011;66626;48.872;9.084;2023-04-19T05:35:13;29.23;;;14.63;;
77513;SDS011;66626;48.872;9.084;2023-04-19T05:37:38;19.85;;;11.05;;
77513;SDS011;66626;48.872;9.084;2023-04-19T05:40:05;16.80;;;8.63;;
77513;SDS011;66626;48.872;9.084;2023-04-19T05:42:33;18.13;;;8.50;;
77513;SDS011;66626;48.872;9.084;2023-04-19T05:44:59;18.10;;;8.32;;
77513;SDS011;66626;48.872;9.084;2023-04-19T05:47:24;19.02;;;9.10;;
77513;SDS011;66626;48.872;9.084;2023-04-19T05:49:50;19.23;;;9.00;;
77513;SDS011;66626;48.872;9.084;2023-04-19T05:52:15;17.75;;;9.65;;
77513;SDS011;66626;48.872;9.084;2023-04-19T05:54:40;15.52;;;8.15;;
77513;SDS011;66626;48.872;9.084;2023-04-19T05:57:05;20.10;;;9.48;;
77513;SDS011;66626;48.872;9.084;2023-04-19T05:59:31;15.80;;;8.25;;
77513;SDS011;66626;48.872;9.084;2023-04-19T06:01:56;19.00;;;9.40;;
77513;SDS011;66626;48.872;9.084;2023-04-19T06:04:21;19.33;;;9.23;;
77513;SDS011;66626;48.872;9.084;2023-04-19T06:06:47;21.25;;;9.77;;
77513;SDS011;66626;48.872;9.084;2023-04-19T06:09:12;15.98;;;8.13;;
77513;SDS011;66626;48.872;9.084;2023-04-19T06:11:38;16.00;;;7.38;;
77513;SDS011;66626;48.872;9.084;2023-04-19T06:14:04;18.70;;;8.48;;
77513;SDS011;66626;48.872;9.084;2023-04-19T06:16:30;17.98;;;9.20;;
77513;SDS011;66626;48.872;9.084;2023-04-19T06:18:55;18.33;;;8.35;;
77513;SDS011;66626;48.872;9.084;2023-04-19T06:21:21;16.13;;;7.32;;
77513;SDS011;66626;48.872;9.084;2023-04-19T06:23:46;17.00;;;8.65;;
77513;SDS011;66626;48.872;9.084;2023-04-19T06:26:11;17.30;;;9.00;;
77513;SDS011;66626;48.872;9.084;2023-04-19T06:28:37;29.50;;;14.15;;
77513;SDS011;66626;48.872;9.084;2023-04-19T06:31:02;16.60;;;8.38;;
77513;SDS011;66626;48.872;9.084;2023-04-19T06:33:27;15.38;;;8.02;;
77513;SDS011;66626;48.872;9.084;2023-04-19T06:35:52;16.73;;;8.45;;
77513;SDS011;66626;48.872;9.084;2023-04-19T06:38:18;18.80;;;9.10;;
77513;SDS011;66626;48.872;9.084;2023-04-19T06:40:43;16.63;;;7.78;;
77513;SDS011;66626;48.872;9.084;2023-04-19T06:43:08;15.35;;;8.10;;
77513;SDS011;66626;48.872;9.084;2023-04-19T06:45:34;16.15;;;8.60;;
77513;SDS011;66626;48.872;9.084;2023-04-19T06:48:00;16.00;;;8.30;;
77513;SDS011;66626;48.872;9.084;2023-04-19T06:50:25;21.85;;;8.90;;
77513;SDS011;66626;48.872;9.084;2023-04-19T06:52:51;17.33;;;8.45;;
77513;SDS011;66626;48.872;9.084;2023-04-19T06:55:17;19.67;;;8.02;;
77513;SDS011;66626;48.872;9.084;2023-04-19T06:57:42;19.05;;;7.95;;
77513;SDS011;66626;48.872;9.084;2023-04-19T07:00:08;17.20;;;8.55;;
77513;SDS011;66626;48.872;9.084;2023-04-19T07:02:34;14.45;;;7.72;;
77513;SDS011;66626;48.872;9.084;2023-04-19T07:04:59;15.52;;;7.60;;
77513;SDS011;66626;48.872;9.084;2023-04-19T07:07:25;16.98;;;8.25;;
77513;SDS011;66626;48.872;9.084;2023-04-19T07:09:50;16.55;;;7.75;;
77513;SDS011;66626;48.872;9.084;2023-04-19T07:12:16;15.13;;;7.38;;
77513;SDS011;66626;48.872;9.084;2023-04-19T07:14:41;14.77;;;7.78;;
77513;SDS011;66626;48.872;9.084;2023-04-19T07:17:06;19.85;;;8.40;;
77513;SDS011;66626;48.872;9.084;2023-04-19T07:19:31;13.88;;;7.28;;
77513;SDS011;66626;48.872;9.084;2023-04-19T07:21:59;14.85;;;7.47;;
77513;SDS011;66626;48.872;9.084;2023-04-19T07:24:24;14.45;;;7.25;;
77513;SDS011;66626;48.872;9.084;2023-04-19T07:26:51;14.07;;;6.93;;
77513;SDS011;66626;48.872;9.084;2023-04-19T07:29:16;17.23;;;8.00;;
77513;SDS011;66626;48.872;9.084;2023-04-19T07:31:42;13.73;;;7.20;;
77513;SDS011;66626;48.872;9.084;2023-04-19T07:34:08;16.30;;;7.55;;
77513;SDS011;66626;48.872;9.084;2023-04-19T07:36:33;14.38;;;7.45;;
77513;SDS011;66626;48.872;9.084;2023-04-19T07:39:00;15.45;;;7.00;;
77513;SDS011;66626;48.872;9.084;2023-04-19T07:41:26;13.80;;;6.80;;
77513;SDS011;66626;48.872;9.084;2023-04-19T07:43:51;14.85;;;7.28;;
77513;SDS011;66626;48.872;9.084;2023-04-19T07:46:16;13.75;;;7.30;;
77513;SDS011;66626;48.872;9.084;2023-04-19T07:48:42;14.43;;;7.43;;
77513;SDS011;66626;48.872;9.084;2023-04-19T07:51:11;14.38;;;7.28;;
77513;SDS011;66626;48.872;9.084;2023-04-19T07:53:37;17.05;;;8.57;;
77513;SDS011;66626;48.872;9.084;2023-04-19T07:56:03;12.68;;;6.22;;
77513;SDS011;66626;48.872;9.084;2023-04-19T07:58:29;14.40;;;7.45;;
77513;SDS011;66626;48.872;9.084;2023-04-19T08:00:54;12.43;;;6.13;;
77513;SDS011;66626;48.872;9.084;2023-04-19T08:03:19;18.13;;;8.45;;
77513;SDS011;66626;48.872;9.084;2023-04-19T08:05:45;22.27;;;10.40;;
77513;SDS011;66626;48.872;9.084;2023-04-19T08:08:11;13.57;;;6.88;;
77513;SDS011;66626;48.872;9.084;2023-04-19T08:10:36;13.02;;;6.75;;
77513;SDS011;66626;48.872;9.084;2023-04-19T08:13:01;15.13;;;7.88;;
77513;SDS011;66626;48.872;9.084;2023-04-19T08:15:27;15.40;;;7.07;;
77513;SDS011;66626;48.872;9.084;2023-04-19T08:17:52;13.10;;;6.57;;
77513;SDS011;66626;48.872;9.084;2023-04-19T08:20:18;15.57;;;6.50;;
77513;SDS011;66626;48.872;9.084;2023-04-19T08:22:43;11.93;;;6.63;;
77513;SDS011;66626;48.872;9.084;2023-04-19T08:25:09;13.10;;;7.10;;
77513;SDS011;66626;48.872;9.084;2023-04-19T08:27:34;15.00;;;6.72;;
77513;SDS011;66626;48.872;9.084;2023-04-19T08:30:00;16.77;;;7.35;;
77513;SDS011;66626;48.872;9.084;2023-04-19T08:32:25;10.63;;;6.18;;
77513;SDS011;66626;48.872;9.084;2023-04-19T08:34:50;13.50;;;7.20;;
77513;SDS011;66626;48.872;9.084;2023-04-19T08:37:16;13.75;;;6.88;;
77513;SDS011;66626;48.872;9.084;2023-04-19T08:39:41;13.10;;;7.38;;
77513;SDS011;66626;48.872;9.084;2023-04-19T08:42:07;12.60;;;6.40;;
77513;SDS011;66626;48.872;9.084;2023-04-19T08:44:34;12.00;;;6.20;;
77513;SDS011;66626;48.872;9.084;2023-04-19T08:47:02;12.55;;;6.35;;
77513;SDS011;66626;48.872;9.084;2023-04-19T08:49:27;14.35;;;7.28;;
77513;SDS011;66626;48.872;9.084;2023-04-19T08:51:53;15.23;;;7.50;;
77513;SDS011;66626;48.872;9.084;2023-04-19T08:54:19;13.35;;;8.00;;
77513;SDS011;66626;48.872;9.084;2023-04-19T08:56:45;15.13;;;8.02;;
77513;SDS011;66626;48.872;9.084;2023-04-19T08:59:11;13.63;;;7.45;;
77513;SDS011;66626;48.872;9.084;2023-04-19T09:01:37;16.02;;;8.45;;
77513;SDS011;66626;48.872;9.084;2023-04-19T09:04:03;13.50;;;7.03;;
77513;SDS011;66626;48.872;9.084;2023-04-19T09:06:38;14.70;;;7.68;;
77513;SDS011;66626;48.872;9.084;2023-04-19T09:11:45;13.98;;;7.07;;
77513;SDS011;66626;48.872;9.084;2023-04-19T09:14:11;15.98;;;8.93;;
77513;SDS011;66626;48.872;9.084;2023-04-19T09:16:37;15.07;;;7.38;;
77513;SDS011;66626;48.872;9.084;2023-04-19T09:19:04;13.65;;;7.78;;
77513;SDS011;66626;48.872;9.084;2023-04-19T09:21:30;15.98;;;8.00;;
77513;SDS011;66626;48.872;9.084;2023-04-19T09:23:56;15.45;;;7.13;;
77513;SDS011;66626;48.872;9.084;2023-04-19T09:26:21;17.17;;;8.55;;
77513;SDS011;66626;48.872;9.084;2023-04-19T09:31:32;12.30;;;7.38;;
77513;SDS011;66626;48.872;9.084;2023-04-19T09:34:10;12.35;;;6.57;;
77513;SDS011;66626;48.872;9.084;2023-04-19T09:36:40;14.50;;;6.78;;
77513;SDS011;66626;48.872;9.084;2023-04-19T09:39:05;12.82;;;7.28;;
77513;SDS011;66626;48.872;9.084;2023-04-19T09:41:31;14.52;;;6.88;;
77513;SDS011;66626;48.872;9.084;2023-04-19T09:44:11;14.77;;;6.95;;
77513;SDS011;66626;48.872;9.084;2023-04-19T09:46:39;11.50;;;6.07;;
77513;SDS011;66626;48.872;9.084;2023-04-19T09:51:40;11.68;;;6.07;;
77513;SDS011;66626;48.872;9.084;2023-04-19T09:54:10;12.63;;;6.25;;
77513;SDS011;66626;48.872;9.084;2023-04-19T09:56:36;13.95;;;6.72;;
77513;SDS011;66626;48.872;9.084;2023-04-19T09:59:02;13.80;;;6.13;;
77513;SDS011;66626;48.872;9.084;2023-04-19T10:01:29;11.32;;;6.13;;
77513;SDS011;66626;48.872;9.084;2023-04-19T10:04:31;12.27;;;6.03;;
77513;SDS011;66626;48.872;9.084;2023-04-19T10:06:56;13.05;;;6.13;;
77513;SDS011;66626;48.872;9.084;2023-04-19T10:09:21;10.88;;;6.20;;
77513;SDS011;66626;48.872;9.084;2023-04-19T10:11:48;12.55;;;6.90;;
77513;SDS011;66626;48.872;9.084;2023-04-19T10:14:15;15.20;;;6.35;;
77513;SDS011;66626;48.872;9.084;2023-04-19T10:16:41;11.75;;;6.07;;
77513;SDS011;66626;48.872;9.084;2023-04-19T10:19:10;11.60;;;6.47;;
77513;SDS011;66626;48.872;9.084;2023-04-19T10:21:36;10.43;;;6.05;;
77513;SDS011;66626;48.872;9.084;2023-04-19T10:24:03;13.20;;;5.68;;
77513;SDS011;66626;48.872;9.084;2023-04-19T10:26:28;11.30;;;6.03;;
77513;SDS011;66626;48.872;9.084;2023-04-19T10:28:54;14.80;;;6.43;;
77513;SDS011;66626;48.872;9.084;2023-04-19T10:31:23;11.50;;;6.15;;
77513;SDS011;66626;48.872;9.084;2023-04-19T10:33:50;11.88;;;6.72;;
77513;SDS011;66626;48.872;9.084;2023-04-19T10:36:16;10.93;;;5.43;;
77513;SDS011;66626;48.872;9.084;2023-04-19T10:38:44;15.35;;;6.43;;
77513;SDS011;66626;48.872;9.084;2023-04-19T10:41:16;11.02;;;5.78;;
77513;SDS011;66626;48.872;9.084;2023-04-19T10:43:43;10.88;;;5.90;;
77513;SDS011;66626;48.872;9.084;2023-04-19T10:48:55;11.77;;;5.40;;
77513;SDS011;66626;48.872;9.084;2023-04-19T10:51:37;9.65;;;5.13;;
77513;SDS011;66626;48.872;9.084;2023-04-19T10:54:04;13.25;;;6.57;;
77513;SDS011;66626;48.872;9.084;2023-04-19T10:57:01;15.82;;;5.65;;
77513;SDS011;66626;48.872;9.084;2023-04-19T10:59:34;14.60;;;6.75;;
77513;SDS011;66626;48.872;9.084;2023-04-19T11:02:01;11.10;;;6.05;;
77513;SDS011;66626;48.872;9.084;2023-04-19T11:07:17;11.30;;;6.60;;
77513;SDS011;66626;48.872;9.084;2023-04-19T11:09:44;12.52;;;6.15;;
77513;SDS011;66626;48.872;9.084;2023-04-19T11:12:10;12.43;;;6.75;;
77513;SDS011;66626;48.872;9.084;2023-04-19T11:14:47;14.30;;;8.02;;
77513;SDS011;66626;48.872;9.084;2023-04-19T11:22:33;14.77;;;7.78;;
77513;SDS011;66626;48.872;9.084;2023-04-19T11:25:13;14.27;;;7.80;;
77513;SDS011;66626;48.872;9.084;2023-04-19T11:27:41;16.05;;;7.88;;
77513;SDS011;66626;48.872;9.084;2023-04-19T11:30:08;17.85;;;8.75;;
77513;SDS011;66626;48.872;9.084;2023-04-19T11:32:35;16.63;;;8.52;;
77513;SDS011;66626;48.872;9.084;2023-04-19T11:35:05;17.67;;;9.13;;
77513;SDS011;66626;48.872;9.084;2023-04-19T11:37:32;17.48;;;9.55;;
77513;SDS011;66626;48.872;9.084;2023-04-19T11:39:58;17.10;;;9.27;;
77513;SDS011;66626;48.872;9.084;2023-04-19T11:42:23;15.60;;;8.70;;
77513;SDS011;66626;48.872;9.084;2023-04-19T11:44:50;19.83;;;9.77;;
77513;SDS011;66626;48.872;9.084;2023-04-19T11:47:16;18.00;;;9.35;;
77513;SDS011;66626;48.872;9.084;2023-04-19T11:49:41;17.73;;;9.68;;
77513;SDS011;66626;48.872;9.084;2023-04-19T11:52:06;20.88;;;9.80;;
77513;SDS011;66626;48.872;9.084;2023-04-19T11:54:32;19.95;;;11.02;;
77513;SDS011;66626;48.872;9.084;2023-04-19T11:59:30;18.65;;;8.98;;
77513;SDS011;66626;48.872;9.084;2023-04-19T12:02:03;17.55;;;9.52;;
77513;SDS011;66626;48.872;9.084;2023-04-19T12:04:37;21.55;;;9.65;;
77513;SDS011;66626;48.872;9.084;2023-04-19T12:07:03;17.73;;;9.35;;
77513;SDS011;66626;48.872;9.084;2023-04-19T12:09:31;16.08;;;9.00;;
77513;SDS011;66626;48.872;9.084;2023-04-19T12:11:57;20.05;;;10.90;;
77513;SDS011;66626;48.872;9.084;2023-04-19T12:14:23;19.17;;;10.07;;
77513;SDS011;66626;48.872;9.084;2023-04-19T12:17:09;16.70;;;9.55;;
77513;SDS011;66626;48.872;9.084;2023-04-19T12:19:36;20.10;;;10.25;;
77513;SDS011;66626;48.872;9.084;2023-04-19T12:22:10;17.73;;;9.50;;
77513;SDS011;66626;48.872;9.084;2023-04-19T12:24:39;21.50;;;9.57;;
77513;SDS011;66626;48.872;9.084;2023-04-19T12:27:05;20.25;;;10.25;;
77513;SDS011;66626;48.872;9.084;2023-04-19T12:29:31;18.15;;;9.20;;
77513;SDS011;66626;48.872;9.084;2023-04-19T12:31:58;18.77;;;8.73;;
77513;SDS011;66626;48.872;9.084;2023-04-19T12:34:23;16.90;;;9.85;;
77513;SDS011;66626;48.872;9.084;2023-04-19T12:36:48;18.25;;;9.73;;
77513;SDS011;66626;48.872;9.084;2023-04-19T12:39:14;15.27;;;9.23;;
77513;SDS011;66626;48.872;9.084;2023-04-19T12:41:39;15.20;;;8.73;;
77513;SDS011;66626;48.872;9.084;2023-04-19T12:44:06;21.67;;;9.45;;
77513;SDS011;66626;48.872;9.084;2023-04-19T12:46:31;18.20;;;8.88;;
77513;SDS011;66626;48.872;9.084;2023-04-19T12:48:56;13.02;;;6.50;;
77513;SDS011;66626;48.872;9.084;2023-04-19T12:51:22;18.40;;;7.60;;
77513;SDS011;66626;48.872;9.084;2023-04-19T12:53:47;15.73;;;8.35;;
77513;SDS011;66626;48.872;9.084;2023-04-19T12:56:13;13.13;;;7.53;;
77513;SDS011;66626;48.872;9.084;2023-04-19T12:58:39;15.20;;;8.43;;
77513;SDS011;66626;48.872;9.084;2023-04-19T13:01:05;12.30;;;7.05;;
77513;SDS011;66626;48.872;9.084;2023-04-19T13:03:30;14.85;;;7.88;;
77513;SDS011;66626;48.872;9.084;2023-04-19T13:05:56;15.73;;;8.40;;
77513;SDS011;66626;48.872;9.084;2023-04-19T13:08:22;15.57;;;7.75;;
77513;SDS011;66626;48.872;9.084;2023-04-19T13:10:47;12.75;;;7.00;;
77513;SDS011;66626;48.872;9.084;2023-04-19T13:13:12;14.05;;;7.68;;
77513;SDS011;66626;48.872;9.084;2023-04-19T13:15:38;14.68;;;7.40;;
77513;SDS011;66626;48.872;9.084;2023-04-19T13:18:05;14.38;;;7.60;;
77513;SDS011;66626;48.872;9.084;2023-04-19T13:20:31;16.25;;;7.47;;
77513;SDS011;66626;48.872;9.084;2023-04-19T13:22:56;15.60;;;7.70;;
77513;SDS011;66626;48.872;9.084;2023-04-19T13:25:21;13.02;;;7.13;;
77513;SDS011;66626;48.872;9.084;2023-04-19T13:27:47;14.25;;;7.97;;
77513;SDS011;66626;48.872;9.084;2023-04-19T13:30:12;14.43;;;8.48;;
77513;SDS011;66626;48.872;9.084;2023-04-19T13:32:38;14.00;;;7.60;;
77513;SDS011;66626;48.872;9.084;2023-04-19T13:35:03;16.88;;;7.55;;
77513;SDS011;66626;48.872;9.084;2023-04-19T13:37:29;23.25;;;11.77;;
77513;SDS011;66626;48.872;9.084;2023-04-19T13:39:54;19.73;;;9.25;;
77513;SDS011;66626;48.872;9.084;2023-04-19T13:42:19;14.63;;;6.93;;
77513;SDS011;66626;48.872;9.084;2023-04-19T13:44:45;15.10;;;7.90;;
77513;SDS011;66626;48.872;9.084;2023-04-19T13:47:10;13.20;;;6.45;;
77513;SDS011;66626;48.872;9.084;2023-04-19T13:49:35;14.52;;;6.90;;
77513;SDS011;66626;48.872;9.084;2023-04-19T13:52:01;14.10;;;7.35;;
77513;SDS011;66626;48.872;9.084;2023-04-19T13:54:26;11.05;;;6.55;;
77513;SDS011;66626;48.872;9.084;2023-04-19T13:56:52;15.20;;;6.85;;
77513;SDS011;66626;48.872;9.084;2023-04-19T13:59:17;15.20;;;6.72;;
77513;SDS011;66626;48.872;9.084;2023-04-19T14:01:42;14.63;;;6.57;;
77513;SDS011;66626;48.872;9.084;2023-04-19T14:04:07;11.80;;;6.68;;
77513;SDS011;66626;48.872;9.084;2023-04-19T14:06:33;13.35;;;6.57;;
77513;SDS011;66626;48.872;9.084;2023-04-19T14:08:58;13.57;;;6.97;;
77513;SDS011;66626;48.872;9.084;2023-04-19T14:11:24;9.70;;;5.57;;
77513;SDS011;66626;48.872;9.084;2023-04-19T14:13:49;11.75;;;6.85;;
77513;SDS011;66626;48.872;9.084;2023-04-19T14:16:14;13.35;;;6.18;;
77513;SDS011;66626;48.872;9.084;2023-04-19T14:18:40;11.43;;;5.80;;
77513;SDS011;66626;48.872;9.084;2023-04-19T14:21:05;11.50;;;6.60;;
77513;SDS011;66626;48.872;9.084;2023-04-19T14:23:31;13.80;;;6.70;;
77513;SDS011;66626;48.872;9.084;2023-04-19T14:25:57;13.63;;;6.68;;
77513;SDS011;66626;48.872;9.084;2023-04-19T14:28:22;13.55;;;6.47;;
77513;SDS011;66626;48.872;9.084;2023-04-19T14:30:47;11.07;;;5.82;;
77513;SDS011;66626;48.872;9.084;2023-04-19T14:33:12;12.70;;;6.00;;
77513;SDS011;66626;48.872;9.084;2023-04-19T14:35:39;11.35;;;5.55;;
77513;SDS011;66626;48.872;9.084;2023-04-19T14:38:05;11.40;;;5.32;;
77513;SDS011;66626;48.872;9.084;2023-04-19T14:40:30;26.02;;;13.77;;
77513;SDS011;66626;48.872;9.084;2023-04-19T14:42:55;17.23;;;8.98;;
77513;SDS011;66626;48.872;9.084;2023-04-19T14:45:21;10.93;;;6.15;;
77513;SDS011;66626;48.872;9.084;2023-04-19T14:47:46;13.38;;;6.90;;
77513;SDS011;66626;48.872;9.084;2023-04-19T14:50:11;12.85;;;5.30;;